sensor_id;sensor_type;location;lat;lon;timestamp;P1;durP1;ratioP1;P2;durP2;ratioP2
40489;SDS011;26196;52.302;10.572;2023-08-06T00:00:41;0.87;;;0.77;;
40489;SDS011;26196;52.302;10.572;2023-08-06T00:04:42;0.50;;;0.43;;
40489;SDS011;26196;52.302;10.572;2023-08-06T00:13:16;0.45;;;0.38;;
40489;SDS011;26196;52.302;10.572;2023-08-06T00:17:17;1.20;;;0.60;;
40489;SDS011;26196;52.302;10.572;2023-08-06T00:21:17;0.70;;;0.50;;
40489;SDS011;26196;52.302;10.572;2023-08-06T00:25:18;2.17;;;0.57;;
40489;SDS011;26196;52.302;10.572;2023-08-06T00:29:18;1.52;;;0.55;;
40489;SDS011;26196;52.302;10.572;2023-08-06T00:33:18;1.25;;;0.70;;
40489;SDS011;26196;52.302;10.572;2023-08-06T00:37:19;0.70;;;0.60;;
40489;SDS011;26196;52.302;10.572;2023-08-06T00:41:19;0.63;;;0.43;;
40489;SDS011;26196;52.302;10.572;2023-08-06T00:45:20;0.43;;;0.43;;
40489;SDS011;26196;52.302;10.572;2023-08-06T00:49:20;1.10;;;0.70;;
40489;SDS011;26196;52.302;10.572;2023-08-06T00:53:20;1.02;;;0.60;;
40489;SDS011;26196;52.302;10.572;2023-08-06T00:57:21;0.75;;;0.50;;
40489;SDS011;26196;52.302;10.572;2023-08-06T01:01:26;0.45;;;0.40;;
40489;SDS011;26196;52.302;10.572;2023-08-06T01:05:26;0.60;;;0.50;;
40489;SDS011;26196;52.302;10.572;2023-08-06T01:14:31;0.40;;;0.40;;
40489;SDS011;26196;52.302;10.572;2023-08-06T01:18:52;1.35;;;0.50;;
40489;SDS011;26196;52.302;10.572;2023-08-06T01:22:53;0.80;;;0.53;;
40489;SDS011;26196;52.302;10.572;2023-08-06T01:31:32;1.38;;;0.50;;
40489;SDS011;26196;52.302;10.572;2023-08-06T01:35:36;0.52;;;0.40;;
40489;SDS011;26196;52.302;10.572;2023-08-06T01:44:12;0.70;;;0.50;;
40489;SDS011;26196;52.302;10.572;2023-08-06T01:48:14;0.50;;;0.50;;
40489;SDS011;26196;52.302;10.572;2023-08-06T01:52:14;0.53;;;0.53;;
40489;SDS011;26196;52.302;10.572;2023-08-06T01:56:14;0.70;;;0.47;;
40489;SDS011;26196;52.302;10.572;2023-08-06T02:00:15;0.52;;;0.50;;
40489;SDS011;26196;52.302;10.572;2023-08-06T02:04:15;0.37;;;0.37;;
40489;SDS011;26196;52.302;10.572;2023-08-06T02:08:15;0.40;;;0.30;;
40489;SDS011;26196;52.302;10.572;2023-08-06T02:12:16;0.53;;;0.40;;
40489;SDS011;26196;52.302;10.572;2023-08-06T02:16:16;1.53;;;0.40;;
40489;SDS011;26196;52.302;10.572;2023-08-06T02:20:16;0.40;;;0.40;;
40489;SDS011;26196;52.302;10.572;2023-08-06T02:24:17;1.13;;;0.75;;
40489;SDS011;26196;52.302;10.572;2023-08-06T02:28:17;0.53;;;0.53;;
40489;SDS011;26196;52.302;10.572;2023-08-06T02:32:17;0.47;;;0.40;;
40489;SDS011;26196;52.302;10.572;2023-08-06T02:36:18;1.07;;;0.77;;
40489;SDS011;26196;52.302;10.572;2023-08-06T02:40:18;0.63;;;0.50;;
40489;SDS011;26196;52.302;10.572;2023-08-06T02:48:55;0.73;;;0.60;;
40489;SDS011;26196;52.302;10.572;2023-08-06T02:52:55;1.42;;;0.60;;
40489;SDS011;26196;52.302;10.572;2023-08-06T02:56:55;1.93;;;0.50;;
40489;SDS011;26196;52.302;10.572;2023-08-06T03:05:33;1.02;;;0.50;;
40489;SDS011;26196;52.302;10.572;2023-08-06T03:09:34;0.63;;;0.43;;
40489;SDS011;26196;52.302;10.572;2023-08-06T03:18:11;0.60;;;0.40;;
40489;SDS011;26196;52.302;10.572;2023-08-06T03:22:12;1.10;;;0.43;;
40489;SDS011;26196;52.302;10.572;2023-08-06T03:26:12;0.40;;;0.40;;
40489;SDS011;26196;52.302;10.572;2023-08-06T03:30:12;0.37;;;0.37;;
40489;SDS011;26196;52.302;10.572;2023-08-06T03:38:47;1.17;;;0.50;;
40489;SDS011;26196;52.302;10.572;2023-08-06T03:42:47;0.70;;;0.60;;
40489;SDS011;26196;52.302;10.572;2023-08-06T03:51:25;0.80;;;0.40;;
40489;SDS011;26196;52.302;10.572;2023-08-06T03:55:26;1.05;;;0.40;;
40489;SDS011;26196;52.302;10.572;2023-08-06T03:59:26;1.13;;;0.60;;
40489;SDS011;26196;52.302;10.572;2023-08-06T04:03:26;0.50;;;0.40;;
40489;SDS011;26196;52.302;10.572;2023-08-06T04:07:27;0.35;;;0.35;;
40489;SDS011;26196;52.302;10.572;2023-08-06T04:11:27;0.60;;;0.50;;
40489;SDS011;26196;52.302;10.572;2023-08-06T04:15:30;0.65;;;0.60;;
40489;SDS011;26196;52.302;10.572;2023-08-06T04:19:30;2.57;;;0.40;;
40489;SDS011;26196;52.302;10.572;2023-08-06T04:23:30;0.50;;;0.47;;
40489;SDS011;26196;52.302;10.572;2023-08-06T04:32:05;0.85;;;0.52;;
40489;SDS011;26196;52.302;10.572;2023-08-06T04:36:07;0.40;;;0.30;;
40489;SDS011;26196;52.302;10.572;2023-08-06T04:40:07;0.43;;;0.33;;
40489;SDS011;26196;52.302;10.572;2023-08-06T04:48:42;0.60;;;0.40;;
40489;SDS011;26196;52.302;10.572;2023-08-06T04:52:43;0.40;;;0.40;;
40489;SDS011;26196;52.302;10.572;2023-08-06T04:56:43;1.50;;;0.50;;
40489;SDS011;26196;52.302;10.572;2023-08-06T05:00:43;1.23;;;0.50;;
40489;SDS011;26196;52.302;10.572;2023-08-06T05:04:44;0.80;;;0.40;;
40489;SDS011;26196;52.302;10.572;2023-08-06T05:08:44;0.40;;;0.40;;
40489;SDS011;26196;52.302;10.572;2023-08-06T05:12:44;0.83;;;0.53;;
40489;SDS011;26196;52.302;10.572;2023-08-06T05:16:44;0.57;;;0.40;;
40489;SDS011;26196;52.302;10.572;2023-08-06T05:20:45;0.47;;;0.40;;
40489;SDS011;26196;52.302;10.572;2023-08-06T05:24:45;1.08;;;0.98;;
40489;SDS011;26196;52.302;10.572;2023-08-06T05:28:46;0.60;;;0.50;;
40489;SDS011;26196;52.302;10.572;2023-08-06T05:32:46;0.60;;;0.50;;
40489;SDS011;26196;52.302;10.572;2023-08-06T05:36:46;0.88;;;0.40;;
40489;SDS011;26196;52.302;10.572;2023-08-06T05:40:47;0.98;;;0.20;;
40489;SDS011;26196;52.302;10.572;2023-08-06T05:44:47;0.50;;;0.40;;
40489;SDS011;26196;52.302;10.572;2023-08-06T05:53:25;0.40;;;0.40;;
40489;SDS011;26196;52.302;10.572;2023-08-06T05:57:25;0.80;;;0.70;;
40489;SDS011;26196;52.302;10.572;2023-08-06T06:01:26;1.00;;;0.70;;
40489;SDS011;26196;52.302;10.572;2023-08-06T06:14:04;0.50;;;0.40;;
40489;SDS011;26196;52.302;10.572;2023-08-06T06:23:01;0.60;;;0.40;;
40489;SDS011;26196;52.302;10.572;2023-08-06T06:27:01;1.27;;;0.50;;
40489;SDS011;26196;52.302;10.572;2023-08-06T06:31:02;1.48;;;0.73;;
40489;SDS011;26196;52.302;10.572;2023-08-06T06:35:03;0.68;;;0.40;;
40489;SDS011;26196;52.302;10.572;2023-08-06T06:39:04;1.17;;;0.60;;
40489;SDS011;26196;52.302;10.572;2023-08-06T06:43:04;1.27;;;0.70;;
40489;SDS011;26196;52.302;10.572;2023-08-06T06:47:05;0.77;;;0.50;;
40489;SDS011;26196;52.302;10.572;2023-08-06T06:55:43;0.52;;;0.50;;
40489;SDS011;26196;52.302;10.572;2023-08-06T06:59:43;1.40;;;1.00;;
40489;SDS011;26196;52.302;10.572;2023-08-06T07:03:43;0.63;;;0.50;;
40489;SDS011;26196;52.302;10.572;2023-08-06T07:07:43;0.73;;;0.60;;
40489;SDS011;26196;52.302;10.572;2023-08-06T07:11:44;0.50;;;0.50;;
40489;SDS011;26196;52.302;10.572;2023-08-06T07:20:21;0.47;;;0.40;;
40489;SDS011;26196;52.302;10.572;2023-08-06T07:24:22;0.70;;;0.50;;
40489;SDS011;26196;52.302;10.572;2023-08-06T07:28:22;0.50;;;0.50;;
40489;SDS011;26196;52.302;10.572;2023-08-06T07:37:13;0.85;;;0.70;;
40489;SDS011;26196;52.302;10.572;2023-08-06T07:41:13;1.03;;;0.60;;
40489;SDS011;26196;52.302;10.572;2023-08-06T07:49:51;1.42;;;0.50;;
40489;SDS011;26196;52.302;10.572;2023-08-06T07:53:52;0.65;;;0.50;;
40489;SDS011;26196;52.302;10.572;2023-08-06T07:57:52;0.53;;;0.50;;
40489;SDS011;26196;52.302;10.572;2023-08-06T08:01:53;1.85;;;0.50;;
40489;SDS011;26196;52.302;10.572;2023-08-06T08:05:54;1.17;;;0.40;;
40489;SDS011;26196;52.302;10.572;2023-08-06T08:09:57;0.57;;;0.52;;
40489;SDS011;26196;52.302;10.572;2023-08-06T08:13:57;0.90;;;0.60;;
40489;SDS011;26196;52.302;10.572;2023-08-06T08:17:58;0.93;;;0.53;;
40489;SDS011;26196;52.302;10.572;2023-08-06T08:21:59;0.40;;;0.40;;
40489;SDS011;26196;52.302;10.572;2023-08-06T08:25:59;0.77;;;0.50;;
40489;SDS011;26196;52.302;10.572;2023-08-06T08:30:02;0.50;;;0.45;;
40489;SDS011;26196;52.302;10.572;2023-08-06T08:34:02;0.60;;;0.50;;
40489;SDS011;26196;52.302;10.572;2023-08-06T08:38:02;0.70;;;0.50;;
40489;SDS011;26196;52.302;10.572;2023-08-06T08:42:03;0.68;;;0.50;;
40489;SDS011;26196;52.302;10.572;2023-08-06T08:50:40;0.83;;;0.83;;
40489;SDS011;26196;52.302;10.572;2023-08-06T08:54:41;0.90;;;0.57;;
40489;SDS011;26196;52.302;10.572;2023-08-06T08:58:43;0.77;;;0.63;;
40489;SDS011;26196;52.302;10.572;2023-08-06T09:07:19;0.70;;;0.50;;
40489;SDS011;26196;52.302;10.572;2023-08-06T09:11:22;0.40;;;0.32;;
40489;SDS011;26196;52.302;10.572;2023-08-06T09:15:26;0.68;;;0.68;;
40489;SDS011;26196;52.302;10.572;2023-08-06T09:19:27;1.45;;;0.63;;
40489;SDS011;26196;52.302;10.572;2023-08-06T09:23:29;0.82;;;0.50;;
40489;SDS011;26196;52.302;10.572;2023-08-06T09:27:33;0.83;;;0.50;;
40489;SDS011;26196;52.302;10.572;2023-08-06T09:31:40;0.77;;;0.63;;
40489;SDS011;26196;52.302;10.572;2023-08-06T09:35:40;0.68;;;0.63;;
40489;SDS011;26196;52.302;10.572;2023-08-06T09:48:56;0.63;;;0.52;;
40489;SDS011;26196;52.302;10.572;2023-08-06T09:52:57;0.28;;;0.28;;
40489;SDS011;26196;52.302;10.572;2023-08-06T09:56:58;0.70;;;0.55;;
40489;SDS011;26196;52.302;10.572;2023-08-06T10:05:34;1.02;;;0.68;;
40489;SDS011;26196;52.302;10.572;2023-08-06T10:09:35;1.08;;;0.50;;
40489;SDS011;26196;52.302;10.572;2023-08-06T10:13:35;1.73;;;0.50;;
40489;SDS011;26196;52.302;10.572;2023-08-06T10:22:14;0.82;;;0.63;;
40489;SDS011;26196;52.302;10.572;2023-08-06T10:26:17;0.75;;;0.60;;
40489;SDS011;26196;52.302;10.572;2023-08-06T10:30:27;0.60;;;0.50;;
40489;SDS011;26196;52.302;10.572;2023-08-06T10:39:03;0.90;;;0.70;;
40489;SDS011;26196;52.302;10.572;2023-08-06T10:43:04;0.85;;;0.43;;
40489;SDS011;26196;52.302;10.572;2023-08-06T10:51:44;1.65;;;0.60;;
40489;SDS011;26196;52.302;10.572;2023-08-06T10:55:46;0.68;;;0.60;;
40489;SDS011;26196;52.302;10.572;2023-08-06T10:59:46;0.40;;;0.40;;
40489;SDS011;26196;52.302;10.572;2023-08-06T11:03:46;1.48;;;0.70;;
40489;SDS011;26196;52.302;10.572;2023-08-06T11:12:25;1.08;;;0.68;;
40489;SDS011;26196;52.302;10.572;2023-08-06T11:16:25;0.50;;;0.50;;
40489;SDS011;26196;52.302;10.572;2023-08-06T11:20:26;0.90;;;0.60;;
40489;SDS011;26196;52.302;10.572;2023-08-06T11:29:02;0.90;;;0.50;;
40489;SDS011;26196;52.302;10.572;2023-08-06T11:37:38;0.57;;;0.47;;
40489;SDS011;26196;52.302;10.572;2023-08-06T11:41:39;0.65;;;0.65;;
40489;SDS011;26196;52.302;10.572;2023-08-06T11:45:42;0.40;;;0.40;;
40489;SDS011;26196;52.302;10.572;2023-08-06T11:53:48;0.80;;;0.50;;
40489;SDS011;26196;52.302;10.572;2023-08-06T12:02:23;0.60;;;0.60;;
40489;SDS011;26196;52.302;10.572;2023-08-06T12:06:27;0.73;;;0.43;;
40489;SDS011;26196;52.302;10.572;2023-08-06T12:10:29;0.40;;;0.40;;
40489;SDS011;26196;52.302;10.572;2023-08-06T12:14:30;0.65;;;0.52;;
40489;SDS011;26196;52.302;10.572;2023-08-06T12:23:05;0.73;;;0.73;;
40489;SDS011;26196;52.302;10.572;2023-08-06T12:27:06;0.77;;;0.60;;
40489;SDS011;26196;52.302;10.572;2023-08-06T12:31:06;0.55;;;0.50;;
40489;SDS011;26196;52.302;10.572;2023-08-06T12:35:06;1.25;;;0.40;;
40489;SDS011;26196;52.302;10.572;2023-08-06T12:39:07;0.55;;;0.50;;
40489;SDS011;26196;52.302;10.572;2023-08-06T12:43:08;1.23;;;0.83;;
40489;SDS011;26196;52.302;10.572;2023-08-06T12:47:08;0.70;;;0.70;;
40489;SDS011;26196;52.302;10.572;2023-08-06T12:51:08;0.95;;;0.60;;
40489;SDS011;26196;52.302;10.572;2023-08-06T12:55:09;0.40;;;0.40;;
40489;SDS011;26196;52.302;10.572;2023-08-06T12:59:09;0.60;;;0.60;;
40489;SDS011;26196;52.302;10.572;2023-08-06T13:03:09;0.47;;;0.40;;
40489;SDS011;26196;52.302;10.572;2023-08-06T13:07:10;0.53;;;0.50;;
40489;SDS011;26196;52.302;10.572;2023-08-06T13:15:46;0.60;;;0.43;;
40489;SDS011;26196;52.302;10.572;2023-08-06T13:19:46;0.60;;;0.50;;
40489;SDS011;26196;52.302;10.572;2023-08-06T13:23:47;0.75;;;0.55;;
40489;SDS011;26196;52.302;10.572;2023-08-06T13:32:22;0.88;;;0.50;;
40489;SDS011;26196;52.302;10.572;2023-08-06T13:36:22;0.60;;;0.47;;
40489;SDS011;26196;52.302;10.572;2023-08-06T13:45:00;0.55;;;0.50;;
40489;SDS011;26196;52.302;10.572;2023-08-06T13:49:03;0.68;;;0.52;;
40489;SDS011;26196;52.302;10.572;2023-08-06T13:53:04;1.63;;;0.70;;
40489;SDS011;26196;52.302;10.572;2023-08-06T13:57:04;1.70;;;0.40;;
40489;SDS011;26196;52.302;10.572;2023-08-06T14:01:04;1.85;;;0.50;;
40489;SDS011;26196;52.302;10.572;2023-08-06T14:05:05;0.60;;;0.50;;
40489;SDS011;26196;52.302;10.572;2023-08-06T14:13:42;1.07;;;0.63;;
40489;SDS011;26196;52.302;10.572;2023-08-06T14:17:42;0.70;;;0.53;;
40489;SDS011;26196;52.302;10.572;2023-08-06T14:26:39;0.87;;;0.50;;
40489;SDS011;26196;52.302;10.572;2023-08-06T14:30:40;0.50;;;0.50;;
40489;SDS011;26196;52.302;10.572;2023-08-06T14:34:41;1.03;;;0.40;;
40489;SDS011;26196;52.302;10.572;2023-08-06T14:43:16;0.65;;;0.50;;
40489;SDS011;26196;52.302;10.572;2023-08-06T14:47:17;0.90;;;0.50;;
40489;SDS011;26196;52.302;10.572;2023-08-06T14:55:58;0.70;;;0.50;;
40489;SDS011;26196;52.302;10.572;2023-08-06T14:59:59;0.70;;;0.60;;
40489;SDS011;26196;52.302;10.572;2023-08-06T15:03:59;0.83;;;0.50;;
40489;SDS011;26196;52.302;10.572;2023-08-06T15:12:34;0.85;;;0.50;;
40489;SDS011;26196;52.302;10.572;2023-08-06T15:16:34;0.90;;;0.60;;
40489;SDS011;26196;52.302;10.572;2023-08-06T15:20:34;1.05;;;0.70;;
40489;SDS011;26196;52.302;10.572;2023-08-06T15:29:12;0.80;;;0.60;;
40489;SDS011;26196;52.302;10.572;2023-08-06T15:33:12;0.60;;;0.53;;
40489;SDS011;26196;52.302;10.572;2023-08-06T15:37:13;4.10;;;2.00;;
40489;SDS011;26196;52.302;10.572;2023-08-06T15:45:50;0.63;;;0.52;;
40489;SDS011;26196;52.302;10.572;2023-08-06T15:49:51;0.70;;;0.60;;
40489;SDS011;26196;52.302;10.572;2023-08-06T15:53:51;0.60;;;0.57;;
40489;SDS011;26196;52.302;10.572;2023-08-06T15:57:51;0.60;;;0.60;;
40489;SDS011;26196;52.302;10.572;2023-08-06T16:01:52;1.77;;;1.58;;
40489;SDS011;26196;52.302;10.572;2023-08-06T16:05:53;1.10;;;0.70;;
40489;SDS011;26196;52.302;10.572;2023-08-06T16:09:53;1.33;;;0.93;;
40489;SDS011;26196;52.302;10.572;2023-08-06T16:13:54;0.95;;;0.75;;
40489;SDS011;26196;52.302;10.572;2023-08-06T16:17:54;0.97;;;0.73;;
40489;SDS011;26196;52.302;10.572;2023-08-06T16:21:55;1.15;;;0.70;;
40489;SDS011;26196;52.302;10.572;2023-08-06T16:25:55;0.80;;;0.60;;
40489;SDS011;26196;52.302;10.572;2023-08-06T16:29:56;2.17;;;0.80;;
40489;SDS011;26196;52.302;10.572;2023-08-06T16:33:56;1.88;;;0.80;;
40489;SDS011;26196;52.302;10.572;2023-08-06T16:42:31;2.00;;;0.63;;
40489;SDS011;26196;52.302;10.572;2023-08-06T16:46:32;0.70;;;0.70;;
40489;SDS011;26196;52.302;10.572;2023-08-06T16:50:34;0.88;;;0.60;;
40489;SDS011;26196;52.302;10.572;2023-08-06T16:59:11;0.90;;;0.68;;
40489;SDS011;26196;52.302;10.572;2023-08-06T17:03:13;0.98;;;0.80;;
40489;SDS011;26196;52.302;10.572;2023-08-06T17:07:14;0.68;;;0.57;;
40489;SDS011;26196;52.302;10.572;2023-08-06T17:11:15;1.70;;;0.83;;
40489;SDS011;26196;52.302;10.572;2023-08-06T17:15:15;0.90;;;0.80;;
40489;SDS011;26196;52.302;10.572;2023-08-06T17:19:18;0.70;;;0.70;;
40489;SDS011;26196;52.302;10.572;2023-08-06T17:23:18;1.47;;;0.80;;
40489;SDS011;26196;52.302;10.572;2023-08-06T17:27:18;1.00;;;0.83;;
40489;SDS011;26196;52.302;10.572;2023-08-06T17:31:18;0.80;;;0.60;;
40489;SDS011;26196;52.302;10.572;2023-08-06T17:39:57;1.20;;;0.88;;
40489;SDS011;26196;52.302;10.572;2023-08-06T17:43:57;1.03;;;0.67;;
40489;SDS011;26196;52.302;10.572;2023-08-06T17:52:32;0.90;;;0.70;;
40489;SDS011;26196;52.302;10.572;2023-08-06T17:56:32;0.90;;;0.80;;
40489;SDS011;26196;52.302;10.572;2023-08-06T18:05:07;0.70;;;0.60;;
40489;SDS011;26196;52.302;10.572;2023-08-06T18:09:10;0.95;;;0.80;;
40489;SDS011;26196;52.302;10.572;2023-08-06T18:13:10;1.00;;;0.90;;
40489;SDS011;26196;52.302;10.572;2023-08-06T18:21:48;0.70;;;0.70;;
40489;SDS011;26196;52.302;10.572;2023-08-06T18:25:48;0.70;;;0.70;;
40489;SDS011;26196;52.302;10.572;2023-08-06T18:29:48;0.80;;;0.80;;
40489;SDS011;26196;52.302;10.572;2023-08-06T18:38:23;0.90;;;0.90;;
40489;SDS011;26196;52.302;10.572;2023-08-06T18:42:26;0.80;;;0.70;;
40489;SDS011;26196;52.302;10.572;2023-08-06T18:46:27;1.25;;;1.10;;
40489;SDS011;26196;52.302;10.572;2023-08-06T18:50:28;0.90;;;0.73;;
40489;SDS011;26196;52.302;10.572;2023-08-06T18:54:28;0.97;;;0.87;;
40489;SDS011;26196;52.302;10.572;2023-08-06T18:58:28;0.70;;;0.70;;
40489;SDS011;26196;52.302;10.572;2023-08-06T19:02:29;1.27;;;1.17;;
40489;SDS011;26196;52.302;10.572;2023-08-06T19:06:29;1.30;;;1.00;;
40489;SDS011;26196;52.302;10.572;2023-08-06T19:10:30;2.72;;;1.20;;
40489;SDS011;26196;52.302;10.572;2023-08-06T19:19:06;1.65;;;1.25;;
40489;SDS011;26196;52.302;10.572;2023-08-06T19:23:06;3.23;;;1.23;;
40489;SDS011;26196;52.302;10.572;2023-08-06T19:31:44;1.17;;;1.08;;
40489;SDS011;26196;52.302;10.572;2023-08-06T19:35:45;1.47;;;1.10;;
40489;SDS011;26196;52.302;10.572;2023-08-06T19:44:21;0.93;;;0.90;;
40489;SDS011;26196;52.302;10.572;2023-08-06T19:48:22;1.67;;;1.10;;
40489;SDS011;26196;52.302;10.572;2023-08-06T19:57:00;1.50;;;1.38;;
40489;SDS011;26196;52.302;10.572;2023-08-06T20:01:01;1.90;;;1.47;;
40489;SDS011;26196;52.302;10.572;2023-08-06T20:09:37;2.50;;;1.85;;
40489;SDS011;26196;52.302;10.572;2023-08-06T20:13:37;1.50;;;1.30;;
40489;SDS011;26196;52.302;10.572;2023-08-06T20:17:37;2.15;;;1.40;;
40489;SDS011;26196;52.302;10.572;2023-08-06T20:21:38;2.20;;;1.40;;
40489;SDS011;26196;52.302;10.572;2023-08-06T20:25:38;1.60;;;1.30;;
40489;SDS011;26196;52.302;10.572;2023-08-06T20:29:38;2.60;;;1.40;;
40489;SDS011;26196;52.302;10.572;2023-08-06T20:33:39;2.70;;;1.87;;
40489;SDS011;26196;52.302;10.572;2023-08-06T20:37:39;3.30;;;1.75;;
40489;SDS011;26196;52.302;10.572;2023-08-06T20:41:39;1.70;;;1.20;;
40489;SDS011;26196;52.302;10.572;2023-08-06T20:45:40;2.43;;;1.60;;
40489;SDS011;26196;52.302;10.572;2023-08-06T20:49:40;1.70;;;1.60;;
40489;SDS011;26196;52.302;10.572;2023-08-06T20:53:40;1.97;;;1.73;;
40489;SDS011;26196;52.302;10.572;2023-08-06T20:57:41;1.80;;;1.42;;
40489;SDS011;26196;52.302;10.572;2023-08-06T21:06:19;2.45;;;1.45;;
40489;SDS011;26196;52.302;10.572;2023-08-06T21:10:19;2.23;;;1.60;;
40489;SDS011;26196;52.302;10.572;2023-08-06T21:14:19;1.63;;;1.40;;
40489;SDS011;26196;52.302;10.572;2023-08-06T21:18:20;1.20;;;1.10;;
40489;SDS011;26196;52.302;10.572;2023-08-06T21:27:17;1.20;;;1.10;;
40489;SDS011;26196;52.302;10.572;2023-08-06T21:31:17;1.67;;;1.20;;
40489;SDS011;26196;52.302;10.572;2023-08-06T21:35:18;2.78;;;1.20;;
40489;SDS011;26196;52.302;10.572;2023-08-06T21:39:18;1.17;;;0.93;;
40489;SDS011;26196;52.302;10.572;2023-08-06T21:43:19;1.33;;;1.23;;
40489;SDS011;26196;52.302;10.572;2023-08-06T21:51:54;1.55;;;0.98;;
40489;SDS011;26196;52.302;10.572;2023-08-06T21:55:56;1.83;;;1.13;;
40489;SDS011;26196;52.302;10.572;2023-08-06T22:00:05;1.27;;;1.17;;
40489;SDS011;26196;52.302;10.572;2023-08-06T22:04:07;1.98;;;1.30;;
40489;SDS011;26196;52.302;10.572;2023-08-06T22:12:45;1.60;;;1.35;;
40489;SDS011;26196;52.302;10.572;2023-08-06T22:16:45;1.60;;;1.40;;
40489;SDS011;26196;52.302;10.572;2023-08-06T22:20:46;2.22;;;1.95;;
40489;SDS011;26196;52.302;10.572;2023-08-06T22:24:47;2.22;;;1.10;;
40489;SDS011;26196;52.302;10.572;2023-08-06T22:28:47;1.70;;;1.33;;
40489;SDS011;26196;52.302;10.572;2023-08-06T22:32:48;1.58;;;1.48;;
40489;SDS011;26196;52.302;10.572;2023-08-06T22:36:48;1.97;;;1.20;;
40489;SDS011;26196;52.302;10.572;2023-08-06T22:40:48;1.63;;;1.10;;
40489;SDS011;26196;52.302;10.572;2023-08-06T22:44:49;3.05;;;1.40;;
40489;SDS011;26196;52.302;10.572;2023-08-06T22:53:23;1.65;;;1.10;;
40489;SDS011;26196;52.302;10.572;2023-08-06T22:57:23;2.10;;;1.83;;
40489;SDS011;26196;52.302;10.572;2023-08-06T23:01:24;1.58;;;1.13;;
40489;SDS011;26196;52.302;10.572;2023-08-06T23:05:24;1.53;;;1.20;;
40489;SDS011;26196;52.302;10.572;2023-08-06T23:09:25;1.70;;;1.33;;
40489;SDS011;26196;52.302;10.572;2023-08-06T23:18:00;1.70;;;1.40;;
40489;SDS011;26196;52.302;10.572;2023-08-06T23:22:00;1.30;;;1.20;;
40489;SDS011;26196;52.302;10.572;2023-08-06T23:26:01;1.75;;;1.20;;
40489;SDS011;26196;52.302;10.572;2023-08-06T23:30:03;1.73;;;1.30;;
40489;SDS011;26196;52.302;10.572;2023-08-06T23:34:04;1.70;;;1.30;;
40489;SDS011;26196;52.302;10.572;2023-08-06T23:38:07;1.60;;;1.17;;
40489;SDS011;26196;52.302;10.572;2023-08-06T23:46:45;2.53;;;1.27;;
40489;SDS011;26196;52.302;10.572;2023-08-06T23:50:45;3.20;;;1.50;;
40489;SDS011;26196;52.302;10.572;2023-08-06T23:54:45;2.40;;;1.10;;
